Time;durP1;ratioP1;P1;durP2;ratioP2;P2;SDS_P1;SDS_P2;PMS_P1;PMS_P2;Temp;Humidity;BMP_temperature;BMP_pressure;BME280_temperature;BME280_humidity;BME280_pressure;Samples;Min_cycle;Max_cycle;Signal;HPM_P1;HPM_P2
2022/04/15 00:01:58;;;;;;;11.73;11.03;;;;;;;9.73;97.92;101765.44;5112800;28;20599;-69
2022/04/15 00:04:24;;;;;;;10.13;9.27;;;;;;;9.70;98.16;101765.50;5098250;28;20186;-69
2022/04/15 00:06:51;;;;;;;9.50;8.90;;;;;;;9.64;98.44;101775.22;5093232;28;20225;-69
2022/04/15 00:09:17;;;;;;;10.20;9.43;;;;;;;9.62;98.74;101776.13;5093303;28;20220;-69
2022/04/15 00:11:44;;;;;;;10.77;9.90;;;;;;;9.58;98.96;101771.84;5100960;28;20697;-69
2022/04/15 00:14:11;;;;;;;11.20;10.47;;;;;;;9.50;100.00;101774.63;5112382;28;20196;-69
2022/04/15 00:16:43;;;;;;;12.30;10.97;;;;;;;9.49;100.00;101777.25;5113520;28;20251;-69
2022/04/15 00:19:11;;;;;;;11.27;10.33;;;;;;;9.55;100.00;101775.38;5113823;28;20177;-69
2022/04/15 00:21:38;;;;;;;12.17;10.97;;;;;;;9.54;100.00;101773.66;5112500;28;20662;-69
2022/04/15 00:24:05;;;;;;;12.80;11.80;;;;;;;9.55;100.00;101775.38;5101234;28;20193;-69
2022/04/15 00:26:31;;;;;;;12.27;11.47;;;;;;;9.58;100.00;101770.09;5093023;28;20229;-69
2022/04/15 00:28:58;;;;;;;14.00;12.80;;;;;;;9.62;100.00;101778.72;5093380;28;20660;-69
2022/04/15 00:31:24;;;;;;;12.07;11.30;;;;;;;9.54;100.00;101771.03;5111502;28;20244;-69
2022/04/15 00:33:51;;;;;;;12.73;11.47;;;;;;;9.53;100.00;101766.72;5085054;28;20190;-69
2022/04/15 00:36:17;;;;;;;13.97;11.53;;;;;;;9.49;100.00;101775.50;5092999;28;20617;-69
2022/04/15 00:38:44;;;;;;;16.40;12.70;;;;;;;9.44;100.00;101773.88;5093583;28;20202;-68
2022/04/15 00:41:15;;;;;;;11.47;10.77;;;;;;;9.40;100.00;101778.28;5099493;28;20181;-68
2022/04/15 00:43:42;;;;;;;13.00;11.80;;;;;;;9.42;100.00;101775.66;5112803;28;20220;-69
2022/04/15 00:46:08;;;;;;;12.23;11.20;;;;;;;9.38;100.00;101769.63;5111777;28;20292;-69
2022/04/15 00:48:38;;;;;;;12.43;11.23;;;;;;;9.33;100.00;101776.69;5113522;28;20193;-68
2022/04/15 00:51:05;;;;;;;14.03;11.90;;;;;;;9.27;100.00;101772.44;5111749;28;20611;-69
2022/04/15 00:53:33;;;;;;;14.57;13.10;;;;;;;9.35;100.00;101772.28;5114804;28;20235;-69
2022/04/15 00:56:05;;;;;;;14.53;13.03;;;;;;;9.33;100.00;101774.06;5117120;28;20205;-69
2022/04/15 00:58:33;;;;;;;12.90;11.63;;;;;;;9.29;100.00;101781.13;5114671;28;20227;-69
2022/04/15 01:01:00;;;;;;;13.50;12.00;;;;;;;9.31;100.00;101776.72;5114174;28;20196;-69
2022/04/15 01:03:29;;;;;;;12.00;11.10;;;;;;;9.31;100.00;101779.34;5111915;28;20546;-69
2022/04/15 01:06:00;;;;;;;12.70;11.67;;;;;;;9.30;100.00;101776.75;5113615;28;20208;-68
2022/04/15 01:08:28;;;;;;;12.97;11.80;;;;;;;9.27;100.00;101774.19;5116784;28;20216;-68
2022/04/15 01:10:58;;;;;;;12.53;11.53;;;;;;;9.25;100.00;101781.19;5115363;28;20192;-68
2022/04/15 01:13:26;;;;;;;12.70;11.80;;;;;;;9.24;100.00;101782.09;5115931;28;20204;-69
2022/04/15 01:15:55;;;;;;;12.33;11.43;;;;;;;9.22;100.00;101783.88;5116573;28;20212;-68
2022/04/15 01:18:22;;;;;;;12.23;11.30;;;;;;;9.18;100.00;101790.91;5116896;28;20212;-68
2022/04/15 01:20:51;;;;;;;14.50;11.77;;;;;;;9.18;100.00;101780.44;5115011;28;20619;-69
2022/04/15 01:23:18;;;;;;;11.40;10.70;;;;;;;9.19;100.00;101787.41;5116259;28;20223;-68
2022/04/15 01:25:45;;;;;;;12.40;11.30;;;;;;;9.18;100.00;101788.28;5116347;28;20247;-68
2022/04/15 01:28:16;;;;;;;13.33;11.83;;;;;;;9.21;100.00;101795.19;5116682;28;20562;-68
2022/04/15 01:30:44;;;;;;;15.93;12.50;;;;;;;9.22;100.00;101794.34;5114723;28;20195;-68
2022/04/15 01:33:10;;;;;;;12.97;11.93;;;;;;;9.17;100.00;101793.56;5116523;28;20200;-68
2022/04/15 01:35:40;;;;;;;12.90;11.80;;;;;;;9.16;100.00;101792.69;5113997;28;20220;-68
2022/04/15 01:38:10;;;;;;;11.13;10.63;;;;;;;9.14;100.00;101796.19;5116176;28;20661;-68
2022/04/15 01:40:37;;;;;;;13.10;12.03;;;;;;;9.08;100.00;101792.84;5114056;28;20199;-69
2022/04/15 01:43:04;;;;;;;12.07;11.13;;;;;;;9.08;100.00;101802.41;5114968;28;20274;-68
2022/04/15 01:45:31;;;;;;;12.50;11.43;;;;;;;9.04;100.00;101804.22;5115956;28;20230;-68
2022/04/15 01:47:58;;;;;;;14.30;12.73;;;;;;;8.99;100.00;101808.63;5116070;28;20192;-68
2022/04/15 01:50:24;;;;;;;12.47;11.23;;;;;;;8.96;100.00;101810.47;5114645;28;20276;-68
2022/04/15 01:52:51;;;;;;;16.43;11.83;;;;;;;8.91;100.00;101813.13;5116186;28;20224;-68
2022/04/15 01:55:17;;;;;;;13.57;12.20;;;;;;;8.92;100.00;101819.22;5115840;28;20201;-68
2022/04/15 01:57:44;;;;;;;13.07;11.93;;;;;;;8.88;100.00;101823.66;5115422;28;20220;-69
2022/04/15 02:00:12;;;;;;;13.83;12.40;;;;;;;8.89;100.00;101819.28;5095658;28;20236;-68
2022/04/15 02:02:38;;;;;;;13.00;12.07;;;;;;;8.87;100.00;101816.72;5115748;28;20212;-68
2022/04/15 02:05:06;;;;;;;14.87;12.73;;;;;;;8.80;100.00;101828.13;5115073;28;20244;-68
2022/04/15 02:07:32;;;;;;;12.87;10.80;;;;;;;8.80;100.00;101826.38;5115949;28;20207;-68
2022/04/15 02:09:59;;;;;;;13.57;12.30;;;;;;;8.72;100.00;101814.34;5113394;28;20273;-68
2022/04/15 02:12:25;;;;;;;12.30;11.17;;;;;;;8.72;100.00;101822.19;5115479;28;20215;-68
2022/04/15 02:14:51;;;;;;;12.77;11.57;;;;;;;8.68;100.00;101818.75;5115449;28;20220;-68
2022/04/15 02:17:18;;;;;;;12.73;11.77;;;;;;;8.66;100.00;101824.88;5115483;28;20226;-68
2022/04/15 02:19:44;;;;;;;14.70;13.13;;;;;;;8.60;100.00;101823.22;5113213;28;20608;-68
2022/04/15 02:22:10;;;;;;;12.87;11.67;;;;;;;8.61;100.00;101830.16;5115615;28;20309;-68
2022/04/15 02:24:37;;;;;;;12.33;11.33;;;;;;;8.59;100.00;101828.47;5115096;28;20235;-68
2022/04/15 02:27:04;;;;;;;12.27;11.50;;;;;;;8.54;100.00;101823.31;5115176;28;20244;-68
2022/04/15 02:29:32;;;;;;;13.10;12.00;;;;;;;8.49;100.00;101830.34;5112840;28;20228;-69
2022/04/15 02:31:58;;;;;;;11.23;10.40;;;;;;;8.42;100.00;101821.72;5115052;28;20242;-68
2022/04/15 02:34:25;;;;;;;12.83;11.73;;;;;;;8.35;100.00;101825.31;5115122;28;20209;-68
2022/04/15 02:36:51;;;;;;;11.23;10.43;;;;;;;8.35;100.00;101827.03;5114942;28;20248;-68
2022/04/15 02:39:18;;;;;;;11.83;11.13;;;;;;;8.28;100.00;101823.66;5111714;28;20604;-69
2022/04/15 02:41:44;;;;;;;11.80;10.93;;;;;;;8.23;100.00;101831.56;5115470;28;20232;-68
2022/04/15 02:44:11;;;;;;;11.17;10.47;;;;;;;8.11;100.00;101825.63;5114930;28;20225;-68
2022/04/15 02:46:37;;;;;;;11.17;10.43;;;;;;;8.04;100.00;101834.41;5114771;28;20249;-68
2022/04/15 02:49:04;;;;;;;12.23;11.17;;;;;;;8.00;100.00;101820.53;5112397;28;20217;-68
2022/04/15 02:51:31;;;;;;;12.47;11.40;;;;;;;7.94;100.00;101825.88;5114260;28;20225;-68
2022/04/15 02:53:57;;;;;;;12.13;11.17;;;;;;;7.92;100.00;101825.00;5114018;28;20304;-68
2022/04/15 02:56:24;;;;;;;13.30;12.10;;;;;;;7.97;100.00;101831.88;5114614;28;20238;-68
2022/04/15 02:58:50;;;;;;;12.97;12.07;;;;;;;7.78;100.00;101826.91;5111686;28;20219;-68
2022/04/15 03:01:16;;;;;;;13.53;11.63;;;;;;;7.72;100.00;101830.47;5114605;28;20273;-68
2022/04/15 03:03:43;;;;;;;13.23;12.07;;;;;;;7.63;100.00;101835.78;5114567;28;20256;-68
2022/04/15 03:06:09;;;;;;;14.77;13.20;;;;;;;7.60;100.00;101836.69;5114448;28;20233;-68
2022/04/15 03:08:36;;;;;;;13.37;12.03;;;;;;;7.64;100.00;101832.28;5112454;28;20237;-68
2022/04/15 03:11:02;;;;;;;14.23;13.10;;;;;;;7.61;100.00;101832.31;5114718;28;20213;-68
2022/04/15 03:13:29;;;;;;;15.30;13.50;;;;;;;7.61;100.00;101837.53;5114542;28;20209;-68
2022/04/15 03:16:02;;;;;;;12.87;11.83;;;;;;;7.58;100.00;101822.81;5112732;28;20221;-68
2022/04/15 03:18:28;;;;;;;12.77;11.97;;;;;;;7.55;100.00;101829.78;5112203;28;20656;-69
2022/04/15 03:20:55;;;;;;;15.87;13.87;;;;;;;7.47;100.00;101837.69;5099133;28;20189;-70
2022/04/15 03:23:21;;;;;;;14.53;13.23;;;;;;;7.48;100.00;101841.16;5094134;28;20177;-70
2022/04/15 03:25:48;;;;;;;15.17;13.57;;;;;;;7.44;100.00;101833.38;5093890;28;20241;-70
2022/04/15 03:28:15;;;;;;;22.17;13.27;;;;;;;7.43;100.00;101836.88;5095858;28;20524;-71
2022/04/15 03:30:41;;;;;;;15.23;13.03;;;;;;;7.47;100.00;101842.91;5112461;28;20276;-68
2022/04/15 03:33:08;;;;;;;14.40;13.07;;;;;;;7.45;100.00;101839.44;5113976;28;20251;-68
2022/04/15 03:35:34;;;;;;;14.37;13.03;;;;;;;7.42;100.00;101847.28;5113879;28;20240;-68
2022/04/15 03:38:01;;;;;;;14.70;13.50;;;;;;;7.44;100.00;101849.00;5113200;28;20197;-68
2022/04/15 03:40:27;;;;;;;14.43;13.27;;;;;;;7.34;100.00;101836.94;5112740;28;20236;-68
2022/04/15 03:42:55;;;;;;;13.37;12.30;;;;;;;7.25;100.00;101847.47;5112674;28;20217;-68
2022/04/15 03:45:22;;;;;;;12.83;11.60;;;;;;;7.23;100.00;101849.22;5093420;28;20240;-68
2022/04/15 03:47:50;;;;;;;12.30;11.50;;;;;;;7.19;100.00;101847.50;5093535;28;20220;-68
2022/04/15 03:50:17;;;;;;;12.13;11.43;;;;;;;7.14;100.00;101846.69;5108165;28;20228;-68
2022/04/15 03:52:46;;;;;;;12.90;11.70;;;;;;;7.17;100.00;101844.06;5114023;28;20216;-68
2022/04/15 03:55:18;;;;;;;11.90;10.83;;;;;;;7.27;100.00;101843.09;5112743;28;20702;-68
2022/04/15 03:57:45;;;;;;;11.93;10.90;;;;;;;7.30;100.00;101853.50;5114058;28;20197;-68
2022/04/15 04:00:15;;;;;;;11.20;10.33;;;;;;;7.37;100.00;101856.91;5112629;28;20192;-68
2022/04/15 04:02:47;;;;;;;10.77;10.03;;;;;;;7.39;100.00;101856.00;5114302;28;20208;-68
2022/04/15 04:05:14;;;;;;;13.53;11.97;;;;;;;7.45;100.00;101852.47;5101446;28;20220;-67
2022/04/15 04:07:41;;;;;;;13.03;11.93;;;;;;;7.42;100.00;101855.97;5114190;28;20185;-67
2022/04/15 04:10:08;;;;;;;17.03;12.37;;;;;;;7.47;100.00;101863.75;5111980;28;20197;-68
2022/04/15 04:12:34;;;;;;;13.10;12.00;;;;;;;7.48;100.00;101868.06;5113528;28;20632;-68
2022/04/15 04:15:02;;;;;;;12.67;11.73;;;;;;;7.52;100.00;101863.72;5113268;28;20231;-68
2022/04/15 04:17:28;;;;;;;14.33;11.87;;;;;;;7.51;100.00;101862.84;5108488;28;20275;-68
2022/04/15 04:19:55;;;;;;;13.83;12.63;;;;;;;7.50;100.00;101870.66;5111273;28;20221;-68
2022/04/15 04:22:30;;;;;;;13.83;12.50;;;;;;;7.51;100.00;101875.88;5113505;28;20213;-67
2022/04/15 04:24:56;;;;;;;14.20;12.87;;;;;;;7.46;100.00;101875.03;5112804;28;20180;-68
2022/04/15 04:27:23;;;;;;;14.47;13.23;;;;;;;7.39;100.00;101879.44;5114683;28;20220;-67
2022/04/15 04:29:50;;;;;;;13.13;11.90;;;;;;;7.45;100.00;101871.59;5116085;28;20222;-68
2022/04/15 04:32:17;;;;;;;15.83;14.17;;;;;;;7.43;100.00;101883.78;5117447;28;20219;-68
2022/04/15 04:34:44;;;;;;;15.27;13.93;;;;;;;7.38;100.00;101876.88;5117202;28;20241;-68
2022/04/15 04:37:11;;;;;;;15.80;14.10;;;;;;;7.32;100.00;101887.34;5116228;28;20224;-68
2022/04/15 04:39:37;;;;;;;21.53;15.57;;;;;;;7.35;100.00;101890.75;5116355;28;20237;-68
2022/04/15 04:42:05;;;;;;;17.83;14.97;;;;;;;7.30;100.00;101889.97;5117305;28;20224;-67
2022/04/15 04:44:33;;;;;;;18.40;15.90;;;;;;;7.29;100.00;101895.19;5116988;28;20220;-68
2022/04/15 04:47:00;;;;;;;20.67;15.70;;;;;;;7.29;100.00;101901.28;5117453;28;20251;-68
2022/04/15 04:49:27;;;;;;;20.37;15.07;;;;;;;7.34;100.00;101899.47;5114871;28;20206;-68
2022/04/15 04:51:54;;;;;;;17.90;16.17;;;;;;;7.34;100.00;101901.22;5116616;28;20626;-68
2022/04/15 04:54:20;;;;;;;19.50;16.33;;;;;;;7.35;100.00;101908.13;5115826;28;20344;-68
2022/04/15 04:56:47;;;;;;;17.97;16.00;;;;;;;7.37;100.00;101920.28;5117235;28;20641;-68
2022/04/15 04:59:13;;;;;;;22.83;17.73;;;;;;;7.47;100.00;101921.06;5116213;28;20225;-68
2022/04/15 05:01:40;;;;;;;25.57;16.53;;;;;;;7.50;100.00;101920.16;5117184;28;20588;-68
2022/04/15 05:04:06;;;;;;;20.33;16.27;;;;;;;7.45;100.00;101935.88;5116030;28;20208;-68
2022/04/15 05:06:33;;;;;;;17.97;15.83;;;;;;;7.38;100.00;101929.84;5116553;28;20298;-68
2022/04/15 05:08:59;;;;;;;17.63;15.83;;;;;;;7.50;100.00;101936.69;5117359;28;20618;-67
2022/04/15 05:11:26;;;;;;;18.50;16.57;;;;;;;7.42;100.00;101943.69;5116779;28;20181;-67
2022/04/15 05:13:52;;;;;;;22.63;17.00;;;;;;;7.46;100.00;101940.19;5104609;28;20202;-68
2022/04/15 05:16:18;;;;;;;14.00;12.93;;;;;;;7.39;100.00;101952.41;5099864;28;20748;-68
2022/04/15 05:18:45;;;;;;;15.17;13.63;;;;;;;7.40;100.00;101956.72;5115914;28;20651;-68
2022/04/15 05:21:12;;;;;;;14.17;12.90;;;;;;;7.40;100.00;101955.88;5116628;28;20209;-67
2022/04/15 05:23:39;;;;;;;16.50;13.67;;;;;;;7.44;100.00;101960.19;5109450;28;20271;-68
2022/04/15 05:26:05;;;;;;;18.63;14.07;;;;;;;7.43;100.00;101961.94;5114259;28;20245;-69
2022/04/15 05:28:32;;;;;;;13.43;12.43;;;;;;;7.34;100.00;101962.00;5115086;28;20231;-68
2022/04/15 05:30:59;;;;;;;12.90;11.73;;;;;;;7.28;100.00;101969.84;5116824;28;20548;-69
2022/04/15 05:33:26;;;;;;;13.67;11.43;;;;;;;7.31;100.00;101972.44;5113457;28;20209;-69
2022/04/15 05:35:53;;;;;;;14.73;12.57;;;;;;;7.37;100.00;101979.34;5116316;28;20232;-68
2022/04/15 05:38:19;;;;;;;14.33;13.00;;;;;;;7.25;100.00;101976.84;5115917;28;20629;-68
2022/04/15 05:40:45;;;;;;;12.80;11.90;;;;;;;7.23;100.00;101984.66;5115498;28;20238;-68
2022/04/15 05:43:12;;;;;;;14.67;13.50;;;;;;;7.29;100.00;101989.84;5105509;28;20706;-68
2022/04/15 05:45:38;;;;;;;15.60;14.10;;;;;;;7.27;100.00;101991.56;5113518;28;20705;-68
2022/04/15 05:48:05;;;;;;;14.60;13.13;;;;;;;7.32;100.00;101995.00;5116337;28;20616;-68
2022/04/15 05:50:31;;;;;;;13.10;11.97;;;;;;;7.40;100.00;101993.22;5114386;28;20190;-69
2022/04/15 05:52:58;;;;;;;13.73;12.20;;;;;;;7.42;100.00;102001.00;5110040;28;20287;-69
2022/04/15 05:55:25;;;;;;;16.47;12.73;;;;;;;7.46;100.00;102002.72;5110189;28;20250;-69
2022/04/15 05:57:51;;;;;;;12.17;11.17;;;;;;;7.47;100.00;102006.19;5113465;28;20213;-68
2022/04/15 06:00:18;;;;;;;13.93;12.47;;;;;;;7.48;100.00;102018.34;5116113;28;20606;-68
2022/04/15 06:02:45;;;;;;;12.03;11.07;;;;;;;7.49;100.00;102015.72;5115192;28;20651;-68
2022/04/15 06:05:11;;;;;;;11.47;10.57;;;;;;;7.55;100.00;102022.63;5115544;28;20209;-68
2022/04/15 06:07:38;;;;;;;11.53;10.90;;;;;;;7.55;100.00;102027.84;5115035;28;20221;-68
2022/04/15 06:10:05;;;;;;;12.07;11.00;;;;;;;7.57;100.00;102034.81;5097597;28;20222;-68
2022/04/15 06:12:54;;;;;;;12.17;10.87;;;;;;;7.73;100.00;102032.94;5095194;28;20206;-68
2022/04/15 06:15:24;;;;;;;11.80;11.03;;;;;;;7.65;100.00;102038.22;5111174;28;20220;-72
2022/04/15 06:17:51;;;;;;;11.63;10.80;;;;;;;7.68;100.00;102045.13;5112687;28;20660;-71
2022/04/15 06:20:17;;;;;;;11.53;10.43;;;;;;;7.62;100.00;102048.63;5109719;28;20193;-68
2022/04/15 06:22:44;;;;;;;11.67;10.67;;;;;;;7.71;100.00;102045.09;5113249;28;20297;-69
2022/04/15 06:25:11;;;;;;;10.40;9.70;;;;;;;7.76;100.00;102050.28;5114552;28;20286;-68
2022/04/15 06:27:38;;;;;;;11.73;10.70;;;;;;;7.73;100.00;102054.66;5113407;28;20185;-68
2022/04/15 06:30:07;;;;;;;11.27;10.30;;;;;;;7.77;100.00;102060.69;5111446;28;20281;-69
2022/04/15 06:32:34;;;;;;;11.37;10.50;;;;;;;7.90;100.00;102066.66;5110944;28;20221;-68
2022/04/15 06:35:01;;;;;;;11.47;10.80;;;;;;;8.00;100.00;102069.19;5090639;28;20309;-68
2022/04/15 06:37:28;;;;;;;11.10;10.37;;;;;;;7.94;100.00;102073.59;5107615;28;20612;-68
2022/04/15 06:39:54;;;;;;;10.03;9.50;;;;;;;7.96;100.00;102072.69;5114804;28;20670;-68
2022/04/15 06:42:21;;;;;;;10.37;9.83;;;;;;;8.13;100.00;102079.50;5113804;28;20189;-68
2022/04/15 06:44:48;;;;;;;11.13;10.63;;;;;;;8.04;100.00;102070.03;5110280;28;20300;-68
2022/04/15 06:47:15;;;;;;;10.50;10.00;;;;;;;7.95;100.00;102080.53;5094796;28;20265;-68
2022/04/15 06:49:43;;;;;;;10.60;9.90;;;;;;;7.98;100.00;102081.38;5094449;28;20247;-68
2022/04/15 06:52:09;;;;;;;9.77;9.07;;;;;;;8.06;100.00;102094.34;5103414;28;20205;-68
2022/04/15 06:54:36;;;;;;;10.90;10.23;;;;;;;8.00;100.00;102094.38;5108501;28;20248;-68
2022/04/15 06:57:02;;;;;;;10.47;9.57;;;;;;;8.00;100.00;102087.47;5094211;28;20234;-68
2022/04/15 06:59:29;;;;;;;8.50;8.07;;;;;;;8.07;100.00;102082.16;5094474;28;20219;-68
2022/04/15 07:01:55;;;;;;;7.70;7.17;;;;;;;8.21;100.00;102086.38;5100250;28;20218;-69
2022/04/15 07:04:23;;;;;;;8.33;7.97;;;;;;;8.36;100.00;102082.81;5112502;28;20192;-69
2022/04/15 07:06:49;;;;;;;8.37;7.77;;;;;;;8.37;100.00;102078.44;5112396;28;20280;-69
2022/04/15 07:09:16;;;;;;;7.50;7.13;;;;;;;8.43;100.00;102079.25;5114421;28;20300;-68
2022/04/15 07:11:42;;;;;;;7.57;7.20;;;;;;;8.59;100.00;102081.69;5105106;28;20278;-68
2022/04/15 07:14:08;;;;;;;8.17;7.13;;;;;;;8.74;99.17;102084.13;5108664;28;20291;-69
2022/04/15 07:16:35;;;;;;;5.87;5.77;;;;;;;8.87;96.33;102087.47;5107371;28;20367;-69
2022/04/15 07:19:04;;;;;;;6.13;5.93;;;;;;;8.90;96.43;102079.56;5110895;28;20278;-69
2022/04/15 07:21:31;;;;;;;5.90;5.80;;;;;;;9.01;96.48;102089.03;5112236;28;20523;-68
2022/04/15 07:23:57;;;;;;;6.10;5.90;;;;;;;9.06;96.20;102086.31;5112946;28;20215;-68
2022/04/15 07:26:24;;;;;;;4.50;4.30;;;;;;;8.90;95.61;102090.88;5111663;28;20600;-69
2022/04/15 07:28:50;;;;;;;5.17;4.93;;;;;;;8.95;95.89;102090.84;5114147;28;20232;-68
2022/04/15 07:31:17;;;;;;;5.10;4.87;;;;;;;9.16;96.13;102089.72;5112612;28;20223;-68
2022/04/15 07:33:46;;;;;;;5.30;5.20;;;;;;;9.13;96.25;102093.19;5113199;28;20235;-68
2022/04/15 07:36:42;;;;;;;6.47;5.90;;;;;;;9.14;95.71;102094.06;5112276;28;20229;-69
2022/04/15 07:39:14;;;;;;;6.73;6.23;;;;;;;9.21;95.26;102099.19;5111949;28;20218;-69
2022/04/15 07:41:42;;;;;;;5.20;5.20;;;;;;;9.18;95.52;102107.09;5111844;28;20590;-68
2022/04/15 07:44:10;;;;;;;6.50;6.10;;;;;;;9.17;95.25;102104.50;5112285;28;20216;-68
2022/04/15 07:46:40;;;;;;;6.10;5.87;;;;;;;9.23;94.71;102109.66;5113861;28;20264;-68
2022/04/15 07:49:07;;;;;;;6.07;5.80;;;;;;;9.18;95.29;102107.09;5100156;28;20223;-68
2022/04/15 07:51:34;;;;;;;6.20;6.00;;;;;;;9.24;95.29;102101.78;5103138;28;20229;-68
2022/04/15 07:54:02;;;;;;;6.60;6.27;;;;;;;9.18;94.63;102109.69;5113792;28;20208;-68
2022/04/15 07:56:29;;;;;;;6.33;6.13;;;;;;;9.20;94.13;102096.59;5112400;28;20236;-69
2022/04/15 07:58:55;;;;;;;6.77;6.40;;;;;;;9.17;95.03;102105.34;5104129;28;20194;-68
2022/04/15 08:01:28;;;;;;;6.93;6.57;;;;;;;9.19;95.50;102100.09;5111207;28;20203;-68
2022/04/15 08:03:56;;;;;;;7.00;6.90;;;;;;;9.09;95.60;102107.22;5099456;28;20224;-69
2022/04/15 08:06:23;;;;;;;7.10;6.80;;;;;;;9.14;94.98;102109.75;5109265;28;20258;-68
2022/04/15 08:08:54;;;;;;;7.50;6.90;;;;;;;9.17;95.27;102104.50;5105085;28;20269;-68
2022/04/15 08:11:21;;;;;;;7.20;6.80;;;;;;;9.22;94.29;102108.78;5105316;28;20218;-68
2022/04/15 08:13:48;;;;;;;6.67;6.50;;;;;;;9.14;95.05;102109.75;5107738;28;20208;-69
2022/04/15 08:16:15;;;;;;;7.27;7.07;;;;;;;9.17;95.04;102112.34;5113452;28;20716;-68
2022/04/15 08:18:42;;;;;;;8.17;7.97;;;;;;;9.20;95.14;102109.66;5113219;28;20195;-68
2022/04/15 08:21:09;;;;;;;8.80;8.03;;;;;;;9.07;95.01;102120.31;5111593;28;20216;-69
2022/04/15 08:23:35;;;;;;;7.00;6.80;;;;;;;9.17;95.38;102112.34;5106742;28;20653;-70
2022/04/15 08:26:02;;;;;;;8.07;7.77;;;;;;;9.19;95.87;102113.16;5110463;28;20236;-69
2022/04/15 08:28:29;;;;;;;8.67;8.43;;;;;;;9.35;94.74;102114.69;5110894;28;20674;-68
2022/04/15 08:30:55;;;;;;;8.50;8.20;;;;;;;9.24;93.88;102111.38;5112756;28;20228;-68
2022/04/15 08:33:22;;;;;;;9.40;8.70;;;;;;;9.30;94.34;102117.38;5113517;28;20274;-68
2022/04/15 08:35:49;;;;;;;9.80;9.20;;;;;;;9.27;94.75;102116.53;5112823;28;20212;-67
2022/04/15 08:38:16;;;;;;;9.70;9.10;;;;;;;9.21;94.74;102121.84;5108289;28;20271;-68
2022/04/15 08:40:50;;;;;;;9.20;8.70;;;;;;;9.25;95.14;102118.31;5092930;28;20193;-68
2022/04/15 08:43:16;;;;;;;7.37;7.17;;;;;;;9.26;95.24;102122.66;5092894;28;20217;-68
2022/04/15 08:45:47;;;;;;;7.97;7.67;;;;;;;9.28;94.09;102134.81;5097469;28;20298;-69
2022/04/15 08:48:14;;;;;;;9.73;8.87;;;;;;;9.10;94.78;102129.84;5111962;28;20272;-68
2022/04/15 08:50:41;;;;;;;8.70;8.30;;;;;;;9.18;94.54;102132.34;5112084;28;20209;-69
2022/04/15 08:53:08;;;;;;;7.73;7.07;;;;;;;9.18;94.80;102134.97;5103457;28;20257;-68
2022/04/15 08:55:35;;;;;;;6.87;6.60;;;;;;;9.26;93.67;102135.72;5111903;28;20272;-68
2022/04/15 08:58:01;;;;;;;8.07;7.20;;;;;;;9.12;93.50;102140.25;5112152;28;20210;-68
2022/04/15 09:00:29;;;;;;;6.53;6.23;;;;;;;9.13;94.08;102134.16;5111959;28;20192;-68
2022/04/15 09:02:56;;;;;;;7.20;6.97;;;;;;;9.21;93.90;102138.38;5108122;28;20250;-68
2022/04/15 09:05:25;;;;;;;7.10;6.77;;;;;;;9.26;94.66;102138.34;5111203;28;20213;-69
2022/04/15 09:08:10;;;;;;;6.80;6.40;;;;;;;9.27;95.18;102140.94;5108752;28;20643;-69
2022/04/15 09:10:40;;;;;;;6.43;6.13;;;;;;;9.32;94.13;102146.97;5110462;28;20224;-69
2022/04/15 09:13:07;;;;;;;7.23;6.93;;;;;;;9.26;94.42;102154.03;5112247;28;20534;-68
2022/04/15 09:15:35;;;;;;;6.57;6.47;;;;;;;9.26;93.84;102154.03;5113003;28;20216;-69
2022/04/15 09:18:02;;;;;;;8.33;7.53;;;;;;;9.27;93.25;102158.34;5113997;28;20203;-68
2022/04/15 09:20:33;;;;;;;7.03;6.93;;;;;;;9.13;94.03;102171.59;5115051;28;20674;-70
2022/04/15 09:23:10;;;;;;;7.33;6.93;;;;;;;9.19;93.58;102165.44;5097007;28;20567;-68
2022/04/15 09:25:39;;;;;;;6.97;6.67;;;;;;;9.00;94.20;102165.66;5109496;28;20689;-68
2022/04/15 09:28:06;;;;;;;7.57;7.03;;;;;;;9.02;94.67;102174.34;5113434;28;20213;-69
2022/04/15 09:30:39;;;;;;;7.47;7.17;;;;;;;9.02;94.99;102176.09;5112457;28;20191;-68
2022/04/15 09:33:09;;;;;;;7.33;7.03;;;;;;;9.09;95.32;102176.00;5116322;28;20198;-68
2022/04/15 09:35:36;;;;;;;7.10;6.90;;;;;;;9.24;95.31;102174.97;5111550;28;20273;-69
2022/04/15 09:38:08;;;;;;;6.67;6.30;;;;;;;9.25;94.98;102181.91;5116073;28;20572;-69
2022/04/15 09:40:37;;;;;;;6.90;6.70;;;;;;;9.41;93.18;102182.56;5115376;28;20224;-69
2022/04/15 09:43:06;;;;;;;7.40;6.80;;;;;;;9.26;93.26;102181.03;5116164;28;20196;-69
2022/04/15 09:45:34;;;;;;;7.40;7.20;;;;;;;9.32;93.11;102177.47;5113153;28;20690;-69
2022/04/15 09:48:05;;;;;;;7.57;7.27;;;;;;;9.07;93.57;102180.41;5110057;28;20651;-69
2022/04/15 09:50:37;;;;;;;7.37;7.27;;;;;;;9.25;93.62;102181.03;5095994;28;20178;-69
2022/04/15 09:53:08;;;;;;;6.77;6.43;;;;;;;9.24;94.19;102184.53;5099729;28;20252;-69
2022/04/15 09:55:38;;;;;;;7.90;7.57;;;;;;;9.20;94.38;102188.94;5095951;28;20265;-69
2022/04/15 09:58:19;;;;;;;6.53;6.33;;;;;;;9.29;94.68;102188.84;5095801;28;20177;-69
2022/04/15 10:00:52;;;;;;;7.73;7.27;;;;;;;9.39;94.92;102181.72;5097574;28;20184;-70
2022/04/15 10:03:22;;;;;;;6.50;6.20;;;;;;;9.56;93.96;102181.50;5114785;28;20195;-69
2022/04/15 10:05:55;;;;;;;7.20;7.00;;;;;;;9.64;93.86;102179.66;5110506;28;20657;-69
2022/04/15 10:08:26;;;;;;;6.40;6.20;;;;;;;9.75;92.95;102184.75;5112921;28;20217;-69
2022/04/15 10:10:55;;;;;;;5.90;5.63;;;;;;;9.83;91.25;102180.25;5115878;28;20173;-69
2022/04/15 10:13:28;;;;;;;5.60;5.50;;;;;;;9.82;91.16;102184.63;5113429;28;20242;-69
2022/04/15 10:15:56;;;;;;;6.40;6.20;;;;;;;9.83;92.29;102186.34;5114803;28;20216;-68
2022/04/15 10:18:24;;;;;;;6.87;6.60;;;;;;;9.68;91.53;102180.47;5114849;28;20238;-68
2022/04/15 10:20:51;;;;;;;6.50;6.40;;;;;;;9.81;90.53;102188.13;5115710;28;20213;-68
2022/04/15 10:23:20;;;;;;;6.00;5.70;;;;;;;9.78;90.52;102184.69;5106835;28;20229;-68
2022/04/15 10:25:49;;;;;;;6.20;6.10;;;;;;;9.69;90.66;102187.44;5094608;28;20276;-68
2022/04/15 10:28:17;;;;;;;5.33;5.33;;;;;;;9.78;90.74;102190.78;5096224;28;20228;-69
2022/04/15 10:31:04;;;;;;;5.73;5.63;;;;;;;9.73;90.78;102181.28;5114568;28;20189;-68
2022/04/15 10:33:32;;;;;;;7.53;6.80;;;;;;;9.99;90.28;102186.13;5115497;28;20255;-68
2022/04/15 10:36:09;;;;;;;6.30;6.20;;;;;;;10.00;90.21;102182.59;5115227;28;20243;-68
2022/04/15 10:38:35;;;;;;;5.97;5.87;;;;;;;9.97;89.59;102182.66;5111495;28;20650;-69
2022/04/15 10:41:15;;;;;;;5.67;5.47;;;;;;;9.86;89.24;102185.47;5113425;28;20223;-69
2022/04/15 10:43:58;;;;;;;5.97;5.57;;;;;;;10.00;89.52;102182.59;5114572;28;20268;-69
2022/04/15 10:46:36;;;;;;;6.40;5.93;;;;;;;10.00;89.42;102183.50;5106493;28;20209;-68
2022/04/15 10:49:20;;;;;;;5.90;5.70;;;;;;;10.00;90.00;102191.34;5106644;28;20564;-69
2022/04/15 10:51:56;;;;;;;6.10;5.83;;;;;;;10.01;89.43;102185.22;5114848;28;20659;-68
2022/04/15 10:54:56;;;;;;;5.67;5.37;;;;;;;10.06;89.13;102182.53;5096344;28;20217;-69
2022/04/15 10:57:31;;;;;;;5.27;5.07;;;;;;;10.03;88.87;102183.44;5090962;28;20243;-69
2022/04/15 11:02:50;;;;;;;4.90;4.80;;;;;;;10.24;88.33;102186.66;5113113;28;20238;-69
2022/04/15 11:05:41;;;;;;;5.73;5.53;;;;;;;10.31;88.57;102183.91;5113531;28;20213;-69
2022/04/15 11:08:12;;;;;;;6.83;6.43;;;;;;;10.25;89.84;102185.75;5108902;28;20182;-69
2022/04/15 11:10:59;;;;;;;5.40;5.30;;;;;;;10.22;89.47;102188.41;5114465;28;20693;-68
2022/04/15 11:13:39;;;;;;;9.37;6.00;;;;;;;10.05;89.60;102191.25;5110593;28;20224;-69
2022/04/15 11:16:12;;;;;;;5.80;5.70;;;;;;;10.17;89.68;102181.47;5109974;28;20242;-69
2022/04/15 11:18:59;;;;;;;5.97;5.73;;;;;;;10.21;89.61;102187.50;5110216;28;20238;-69
2022/04/15 11:21:40;;;;;;;5.67;5.57;;;;;;;10.44;89.58;102190.66;5112916;28;20220;-68
2022/04/15 11:24:11;;;;;;;5.80;5.70;;;;;;;10.51;88.76;102186.19;5102520;28;20656;-69
2022/04/15 11:26:39;;;;;;;5.27;5.00;;;;;;;10.58;88.28;102186.94;5107274;28;20247;-69
2022/04/15 11:29:07;;;;;;;6.30;5.90;;;;;;;10.64;88.45;102194.66;5112907;28;20628;-68